createdAt,value
2018-06-23T00:00:25.171Z,13.79
2018-06-23T00:01:25.159Z,13.76
2018-06-23T00:02:25.133Z,13.80
2018-06-23T00:03:25.116Z,13.82
2018-06-23T00:04:25.100Z,13.76
2018-06-23T00:05:25.077Z,13.89
2018-06-23T00:06:25.061Z,13.89
2018-06-23T00:07:25.071Z,13.86
2018-06-23T00:08:25.030Z,13.76
2018-06-23T00:09:25.004Z,13.82
2018-06-23T00:10:24.985Z,13.82
2018-06-23T00:11:24.970Z,13.86
2018-06-23T00:12:24.952Z,13.76
2018-06-23T00:13:24.969Z,13.83
2018-06-23T00:14:24.965Z,13.76
2018-06-23T00:15:24.902Z,13.67
2018-06-23T00:16:24.882Z,13.78
2018-06-23T00:17:24.860Z,13.67
2018-06-23T00:18:24.841Z,13.71
2018-06-23T00:19:24.824Z,13.70
2018-06-23T00:20:24.816Z,13.61
2018-06-23T00:21:24.797Z,13.68
2018-06-23T00:22:24.769Z,13.65
2018-06-23T00:23:24.756Z,13.67
2018-06-23T00:24:24.755Z,13.61
2018-06-23T00:25:24.716Z,13.61
2018-06-23T00:26:24.715Z,13.58
2018-06-23T00:27:24.680Z,13.61
2018-06-23T00:28:24.663Z,13.58
2018-06-23T00:29:24.645Z,13.60
2018-06-23T00:30:24.626Z,13.62
2018-06-23T00:31:24.607Z,13.58
2018-06-23T00:32:24.598Z,13.60
2018-06-23T00:33:24.578Z,13.62
2018-06-23T00:34:24.554Z,13.57
2018-06-23T00:35:24.533Z,13.62
2018-06-23T00:36:24.526Z,13.58
2018-06-23T00:37:24.496Z,13.62
2018-06-23T00:38:24.479Z,13.60
2018-06-23T00:39:24.459Z,13.57
2018-06-23T00:40:24.441Z,13.57
2018-06-23T00:41:24.449Z,13.61
2018-06-23T00:42:24.405Z,13.47
2018-06-23T00:43:24.388Z,13.58
2018-06-23T00:44:24.375Z,13.57
2018-06-23T00:45:24.352Z,13.60
2018-06-23T00:46:24.332Z,13.55
2018-06-23T00:47:24.315Z,13.46
2018-06-23T00:48:24.298Z,13.39
2018-06-23T00:49:24.282Z,13.47
2018-06-23T00:50:24.263Z,13.45
2018-06-23T00:51:24.240Z,13.47
2018-06-23T00:52:24.227Z,13.54
2018-06-23T00:53:24.206Z,13.49
2018-06-23T00:54:24.209Z,13.40
2018-06-23T00:55:24.172Z,13.46
2018-06-23T00:56:24.160Z,13.43
2018-06-23T00:57:24.169Z,13.50
2018-06-23T00:58:24.118Z,13.49
2018-06-23T00:59:24.098Z,13.43
2018-06-23T01:00:24.084Z,13.37
2018-06-23T01:01:24.060Z,13.28
2018-06-23T01:02:24.039Z,13.36
2018-06-23T01:03:24.020Z,13.28
2018-06-23T01:04:24.005Z,13.36
2018-06-23T01:05:23.984Z,13.39
2018-06-23T01:06:23.969Z,13.43
2018-06-23T01:07:23.992Z,13.33
2018-06-23T01:08:23.941Z,13.37
2018-06-23T01:09:23.958Z,13.42
2018-06-23T01:10:23.896Z,13.37
2018-06-23T01:11:23.874Z,13.40
2018-06-23T01:12:23.861Z,13.31
2018-06-23T01:13:23.839Z,13.39
2018-06-23T01:14:23.817Z,13.36
2018-06-23T01:15:23.801Z,13.24
2018-06-23T01:16:23.787Z,13.23
2018-06-23T01:17:23.766Z,13.31
2018-06-23T01:18:23.746Z,13.30
2018-06-23T01:19:23.727Z,13.28
2018-06-23T01:20:23.709Z,13.26
2018-06-23T01:21:23.687Z,13.28
2018-06-23T01:22:23.675Z,13.39
2018-06-23T01:23:23.658Z,13.31
2018-06-23T01:24:23.638Z,13.23
2018-06-23T01:25:23.617Z,13.20
2018-06-23T01:26:23.599Z,13.21
2018-06-23T01:27:23.590Z,13.23
2018-06-23T01:28:23.561Z,13.26
2018-06-23T01:29:23.542Z,13.26
2018-06-23T01:30:23.524Z,13.24
2018-06-23T01:31:23.505Z,13.24
2018-06-23T01:32:23.491Z,13.24
2018-06-23T01:33:23.469Z,13.17
2018-06-23T01:34:23.452Z,13.13
2018-06-23T01:35:23.432Z,13.16
2018-06-23T01:36:23.420Z,13.17
2018-06-23T01:37:23.399Z,13.16
2018-06-23T01:38:23.377Z,13.05
2018-06-23T01:39:23.360Z,13.06
2018-06-23T01:40:23.342Z,13.03
2018-06-23T01:41:23.323Z,13.03
2018-06-23T01:42:23.302Z,13.02
2018-06-23T01:43:23.293Z,13.11
2018-06-23T01:44:23.307Z,13.11
2018-06-23T01:45:23.284Z,13.06
2018-06-23T01:46:23.249Z,13.03
2018-06-23T01:47:23.222Z,13.08
2018-06-23T01:48:23.236Z,13.03
2018-06-23T01:49:23.175Z,12.95
2018-06-23T01:50:23.154Z,13.02
2018-06-23T01:51:23.136Z,12.95
2018-06-23T01:52:23.125Z,12.98
2018-06-23T01:53:23.101Z,12.84
2018-06-23T01:54:23.078Z,12.88
2018-06-23T01:55:23.064Z,12.84
2018-06-23T01:56:23.046Z,13.01
2018-06-23T01:57:23.028Z,13.01
2018-06-23T01:58:23.007Z,12.94
2018-06-23T01:59:22.989Z,12.90
2018-06-23T02:00:22.971Z,12.83
2018-06-23T02:01:22.956Z,12.83
2018-06-23T02:02:22.932Z,12.80
2018-06-23T02:03:22.926Z,12.83
2018-06-23T02:04:22.897Z,12.81
2018-06-23T02:05:22.880Z,12.78
2018-06-23T02:06:22.858Z,12.72
2018-06-23T02:07:22.844Z,12.75
2018-06-23T02:08:22.823Z,12.70
2018-06-23T02:09:22.805Z,12.61
2018-06-23T02:10:22.783Z,12.50
2018-06-23T02:11:22.765Z,12.57
2018-06-23T02:12:22.749Z,12.55
2018-06-23T02:13:22.730Z,12.58
2018-06-23T02:14:22.710Z,12.51
2018-06-23T02:15:22.689Z,12.54
2018-06-23T02:16:22.675Z,12.47
2018-06-23T02:17:22.655Z,12.53
2018-06-23T02:18:22.635Z,12.48
2018-06-23T02:19:22.622Z,12.44
2018-06-23T02:20:23.429Z,12.47
2018-06-23T02:21:22.586Z,12.47
2018-06-23T02:22:22.560Z,12.53
2018-06-23T02:23:22.561Z,12.51
2018-06-23T02:24:22.526Z,12.50
2018-06-23T02:25:22.506Z,12.54
2018-06-23T02:26:22.484Z,12.40
2018-06-23T02:27:22.471Z,12.44
2018-06-23T02:28:22.459Z,12.36
2018-06-23T02:29:22.440Z,12.37
2018-06-23T02:30:22.410Z,12.43
2018-06-23T02:31:22.395Z,12.43
2018-06-23T02:32:22.380Z,12.29
2018-06-23T02:33:22.355Z,12.32
2018-06-23T02:34:22.335Z,12.39
2018-06-23T02:35:22.317Z,12.39
2018-06-23T02:36:22.316Z,12.53
2018-06-23T02:37:22.315Z,12.48
2018-06-23T02:38:22.263Z,12.48
2018-06-23T02:39:22.240Z,12.55
2018-06-23T02:40:22.221Z,12.53
2018-06-23T02:41:22.211Z,12.57
2018-06-23T02:42:22.184Z,12.54
2018-06-23T02:43:22.165Z,12.43
2018-06-23T02:44:22.150Z,12.44
2018-06-23T02:45:22.126Z,12.39
2018-06-23T02:46:22.110Z,12.28
2018-06-23T02:47:22.096Z,12.29
2018-06-23T02:48:22.082Z,12.26
2018-06-23T02:49:22.077Z,12.30
2018-06-23T02:50:22.033Z,12.30
2018-06-23T02:51:22.057Z,12.28
2018-06-23T02:52:22.013Z,12.30
2018-06-23T02:53:22.000Z,12.30
2018-06-23T02:54:21.955Z,12.25
2018-06-23T02:55:21.935Z,12.37
2018-06-23T02:56:21.924Z,12.33
2018-06-23T02:57:21.897Z,12.35
2018-06-23T02:58:21.877Z,12.25
2018-06-23T02:59:21.864Z,12.20
2018-06-23T03:00:21.842Z,12.20
2018-06-23T03:01:21.820Z,12.17
2018-06-23T03:02:21.799Z,12.26
2018-06-23T03:03:21.792Z,12.26
2018-06-23T03:04:21.770Z,12.23
2018-06-23T03:05:21.747Z,12.28
2018-06-23T03:06:21.731Z,12.21
2018-06-23T03:07:21.706Z,12.30
2018-06-23T03:08:21.688Z,12.39
2018-06-23T03:09:21.669Z,12.28
2018-06-23T03:10:21.646Z,12.29
2018-06-23T03:11:21.632Z,12.39
2018-06-23T03:12:21.608Z,12.28
2018-06-23T03:13:21.596Z,12.28
2018-06-23T03:14:21.575Z,12.30
2018-06-23T03:15:21.552Z,12.30
2018-06-23T03:16:21.531Z,12.39
2018-06-23T03:17:21.514Z,12.39
2018-06-23T03:18:21.494Z,12.37
2018-06-23T03:19:21.479Z,12.43
2018-06-23T03:20:21.457Z,12.25
2018-06-23T03:21:21.492Z,12.23
2018-06-23T03:22:21.416Z,12.33
2018-06-23T03:23:21.398Z,12.25
2018-06-23T03:24:21.382Z,12.29
2018-06-23T03:25:21.366Z,12.30
2018-06-23T03:26:21.338Z,12.39
2018-06-23T03:27:21.326Z,12.40
2018-06-23T03:28:21.301Z,12.43
2018-06-23T03:29:21.282Z,12.33
2018-06-23T03:30:21.279Z,12.44
2018-06-23T03:31:21.246Z,12.44
2018-06-23T03:32:21.228Z,12.39
2018-06-23T03:33:21.205Z,12.43
2018-06-23T03:34:21.194Z,12.54
2018-06-23T03:35:21.172Z,12.53
2018-06-23T03:36:21.148Z,12.58
2018-06-23T03:37:21.129Z,12.51
2018-06-23T03:38:21.113Z,12.54
2018-06-23T03:39:21.095Z,12.51
2018-06-23T03:40:21.072Z,12.53
2018-06-23T03:41:21.053Z,12.53
2018-06-23T03:42:21.033Z,12.57
2018-06-23T03:43:21.020Z,12.58
2018-06-23T03:44:21.003Z,12.58
2018-06-23T03:45:20.975Z,12.66
2018-06-23T03:46:20.962Z,12.66
2018-06-23T03:47:20.942Z,12.69
2018-06-23T03:48:20.944Z,12.76
2018-06-23T03:49:20.898Z,12.70
2018-06-23T03:50:20.881Z,12.68
2018-06-23T03:51:20.866Z,12.65
2018-06-23T03:52:20.844Z,12.57
2018-06-23T03:53:20.823Z,12.62
2018-06-23T03:54:20.806Z,12.68
2018-06-23T03:55:20.794Z,12.69
2018-06-23T03:56:20.768Z,12.70
2018-06-23T03:57:20.746Z,12.65
2018-06-23T03:58:20.739Z,12.72
2018-06-23T03:59:20.709Z,12.62
2018-06-23T04:00:20.690Z,12.62
2018-06-23T04:01:20.672Z,12.62
2018-06-23T04:02:20.655Z,12.63
2018-06-23T04:03:20.634Z,12.65
2018-06-23T04:04:20.620Z,12.70
2018-06-23T04:05:20.596Z,12.66
2018-06-23T04:06:20.591Z,12.69
2018-06-23T04:07:20.557Z,12.73
2018-06-23T04:08:20.546Z,12.73
2018-06-23T04:09:20.518Z,12.70
2018-06-23T04:10:20.500Z,12.58
2018-06-23T04:11:20.515Z,12.62
2018-06-23T04:12:20.461Z,12.69
2018-06-23T04:13:20.463Z,12.57
2018-06-23T04:14:20.429Z,12.57
2018-06-23T04:15:20.405Z,12.58
2018-06-23T04:16:20.387Z,12.61
2018-06-23T04:17:20.374Z,12.55
2018-06-23T04:18:20.366Z,12.61
2018-06-23T04:19:20.329Z,12.58
2018-06-23T04:20:20.314Z,12.55
2018-06-23T04:21:20.290Z,12.48
2018-06-23T04:22:20.275Z,12.51
2018-06-23T04:23:20.253Z,12.61
2018-06-23T04:24:20.232Z,12.53
2018-06-23T04:25:20.217Z,12.37
2018-06-23T04:26:20.199Z,12.55
2018-06-23T04:27:20.179Z,12.57
2018-06-23T04:28:20.164Z,12.57
2018-06-23T04:29:20.212Z,12.53
2018-06-23T04:30:20.122Z,12.51
2018-06-23T04:31:20.105Z,12.57
2018-06-23T04:32:20.085Z,12.58
2018-06-23T04:33:20.072Z,12.58
2018-06-23T04:34:20.044Z,12.58
2018-06-23T04:35:20.032Z,12.57
2018-06-23T04:36:20.008Z,12.51
2018-06-23T04:37:19.991Z,12.54
2018-06-23T04:38:19.973Z,12.61
2018-06-23T04:39:19.949Z,12.57
2018-06-23T04:40:19.931Z,12.53
2018-06-23T04:41:19.914Z,12.62
2018-06-23T04:42:19.909Z,12.58
2018-06-23T04:43:19.873Z,12.72
2018-06-23T04:44:19.856Z,12.72
2018-06-23T04:45:19.835Z,12.66
2018-06-23T04:46:19.822Z,12.78
2018-06-23T04:47:19.799Z,12.78
2018-06-23T04:48:19.779Z,12.81
2018-06-23T04:49:19.763Z,12.84
2018-06-23T04:50:19.749Z,12.78
2018-06-23T04:51:19.720Z,12.93
2018-06-23T04:52:19.704Z,12.87
2018-06-23T04:53:19.690Z,12.87
2018-06-23T04:54:19.673Z,12.91
2018-06-23T04:55:19.647Z,12.90
2018-06-23T04:56:19.628Z,12.93
2018-06-23T04:57:19.610Z,12.86
2018-06-23T04:58:19.588Z,12.72
2018-06-23T04:59:19.572Z,12.68
2018-06-23T05:00:19.560Z,12.61
2018-06-23T05:01:19.591Z,12.66
2018-06-23T05:02:19.513Z,12.62
2018-06-23T05:03:19.497Z,12.58
2018-06-23T05:04:19.511Z,12.62
2018-06-23T05:05:19.468Z,12.62
2018-06-23T05:06:19.436Z,12.70
2018-06-23T05:07:19.424Z,12.70
2018-06-23T05:08:19.401Z,12.73
2018-06-23T05:09:19.383Z,12.76
2018-06-23T05:10:19.360Z,12.88
2018-06-23T05:11:19.343Z,12.86
2018-06-23T05:12:19.334Z,12.84
2018-06-23T05:13:19.311Z,12.81
2018-06-23T05:14:19.287Z,12.93
2018-06-23T05:15:19.267Z,12.83
2018-06-23T05:16:19.248Z,12.88
2018-06-23T05:17:19.232Z,12.87
2018-06-23T05:18:19.258Z,12.80
2018-06-23T05:19:19.199Z,12.83
2018-06-23T05:20:19.238Z,12.95
2018-06-23T05:21:19.154Z,12.81
2018-06-23T05:22:19.134Z,12.87
2018-06-23T05:23:19.117Z,12.80
2018-06-23T05:24:19.096Z,12.84
2018-06-23T05:25:19.079Z,12.91
2018-06-23T05:26:19.071Z,12.87
2018-06-23T05:27:19.046Z,12.86
2018-06-23T05:28:19.022Z,12.88
2018-06-23T05:29:19.005Z,12.88
2018-06-23T05:30:18.989Z,12.84
2018-06-23T05:31:18.990Z,12.95
2018-06-23T05:32:18.947Z,13.02
2018-06-23T05:33:18.933Z,13.03
2018-06-23T05:34:18.909Z,13.19
2018-06-23T05:35:18.908Z,13.13
2018-06-23T05:36:18.876Z,13.13
2018-06-23T05:37:18.854Z,13.19
2018-06-23T05:38:18.836Z,13.21
2018-06-23T05:39:18.819Z,13.06
2018-06-23T05:40:18.799Z,13.06
2018-06-23T05:41:18.778Z,13.08
2018-06-23T05:42:18.764Z,12.95
2018-06-23T05:43:18.739Z,13.05
2018-06-23T05:44:18.733Z,13.03
2018-06-23T05:45:18.703Z,13.12
2018-06-23T05:46:18.691Z,13.21
2018-06-23T05:47:18.665Z,13.17
2018-06-23T05:48:18.647Z,13.33
2018-06-23T05:49:18.629Z,13.37
2018-06-23T05:50:18.608Z,13.33
2018-06-23T05:51:18.638Z,13.46
2018-06-23T05:52:18.572Z,13.46
2018-06-23T05:53:18.553Z,13.60
2018-06-23T05:54:18.537Z,13.50
2018-06-23T05:55:18.517Z,13.54
2018-06-23T05:56:18.497Z,13.55
2018-06-23T05:57:18.478Z,13.58
2018-06-23T05:58:18.459Z,13.60
2018-06-23T05:59:18.440Z,13.67
2018-06-23T06:00:18.423Z,13.73
2018-06-23T06:01:18.406Z,13.79
2018-06-23T06:02:18.385Z,13.76
2018-06-23T06:03:18.365Z,13.71
2018-06-23T06:04:18.350Z,13.71
2018-06-23T06:05:18.333Z,13.75
2018-06-23T06:06:18.310Z,13.78
2018-06-23T06:07:18.297Z,13.73
2018-06-23T06:08:18.274Z,13.75
2018-06-23T06:09:18.261Z,13.82
2018-06-23T06:10:18.249Z,13.86
2018-06-23T06:11:18.219Z,13.93
2018-06-23T06:12:18.209Z,13.86
2018-06-23T06:13:18.185Z,13.89
2018-06-23T06:14:18.173Z,13.93
2018-06-23T06:15:18.151Z,13.87
2018-06-23T06:16:18.151Z,13.93
2018-06-23T06:17:18.133Z,13.89
2018-06-23T06:18:18.150Z,14.01
2018-06-23T06:19:18.100Z,14.05
2018-06-23T06:20:18.066Z,14.12
2018-06-23T06:21:18.045Z,14.19
2018-06-23T06:22:18.045Z,14.20
2018-06-23T06:23:18.009Z,14.28
2018-06-23T06:24:17.985Z,14.23
2018-06-23T06:25:17.966Z,14.26
2018-06-23T06:26:18.006Z,14.34
2018-06-23T06:27:17.966Z,14.33
2018-06-23T06:29:17.892Z,14.34
2018-06-23T06:30:17.913Z,14.40
2018-06-23T06:31:18.032Z,14.40
2018-06-23T06:32:17.868Z,14.49
2018-06-23T06:33:17.821Z,14.48
2018-06-23T06:34:17.800Z,14.51
2018-06-23T06:35:17.780Z,14.55
2018-06-23T06:36:17.766Z,14.53
2018-06-23T06:37:17.748Z,14.61
2018-06-23T06:38:17.729Z,14.67
2018-06-23T06:39:17.711Z,14.70
2018-06-23T06:40:17.690Z,14.74
2018-06-23T06:41:17.674Z,14.74
2018-06-23T06:42:17.656Z,14.92
2018-06-23T06:43:17.638Z,14.94
2018-06-23T06:44:17.619Z,14.99
2018-06-23T06:45:17.613Z,15.12
2018-06-23T06:46:17.582Z,14.96
2018-06-23T06:47:17.572Z,14.97
2018-06-23T06:48:17.549Z,14.92
2018-06-23T06:49:17.562Z,14.93
2018-06-23T06:50:17.513Z,14.93
2018-06-23T06:51:17.496Z,14.94
2018-06-23T06:52:17.495Z,14.94
2018-06-23T06:53:17.462Z,14.94
2018-06-23T06:54:17.442Z,14.96
2018-06-23T06:55:17.446Z,15.04
2018-06-23T06:56:17.442Z,14.92
2018-06-23T06:57:17.439Z,14.92
2018-06-23T06:58:17.396Z,14.92
2018-06-23T06:59:17.400Z,14.97
2018-06-23T07:00:18.065Z,14.94
2018-06-23T07:01:17.363Z,14.89
2018-06-23T07:02:17.310Z,14.89
2018-06-23T07:03:17.346Z,14.82
2018-06-23T07:04:17.273Z,14.67
2018-06-23T07:05:17.261Z,14.74
2018-06-23T07:06:17.294Z,14.81
2018-06-23T07:07:17.217Z,14.73
2018-06-23T07:08:17.214Z,14.86
2018-06-23T07:09:17.252Z,14.92
2018-06-23T07:10:17.160Z,14.82
2018-06-23T07:11:17.167Z,14.93
2018-06-23T07:12:17.122Z,15.10
2018-06-23T07:13:17.103Z,15.05
2018-06-23T07:14:17.089Z,15.02
2018-06-23T07:15:17.072Z,15.15
2018-06-23T07:16:17.053Z,15.15
2018-06-23T07:17:17.049Z,15.12
2018-06-23T07:18:17.023Z,15.22
2018-06-23T07:19:17.000Z,15.23
2018-06-23T07:20:16.981Z,15.33
2018-06-23T07:21:16.967Z,15.35
2018-06-23T07:22:16.948Z,15.30
2018-06-23T07:23:16.932Z,15.41
2018-06-23T07:24:16.913Z,15.43
2018-06-23T07:25:16.910Z,15.41
2018-06-23T07:26:16.879Z,15.50
2018-06-23T07:27:16.861Z,15.50
2018-06-23T07:28:16.843Z,15.52
2018-06-23T07:29:16.824Z,15.54
2018-06-23T07:30:16.829Z,15.62
2018-06-23T07:31:16.792Z,15.63
2018-06-23T07:32:16.782Z,15.67
2018-06-23T07:33:16.752Z,15.66
2018-06-23T07:34:16.758Z,15.84
2018-06-23T07:35:16.949Z,15.85
2018-06-23T07:36:16.731Z,15.78
2018-06-23T07:37:16.694Z,15.78
2018-06-23T07:38:16.696Z,15.81
2018-06-23T07:39:16.673Z,15.83
2018-06-23T07:40:16.635Z,15.90
2018-06-23T07:41:16.616Z,15.98
2018-06-23T07:42:16.626Z,16.03
2018-06-23T07:43:16.596Z,16.12
2018-06-23T07:44:16.565Z,16.22
2018-06-23T07:45:16.549Z,16.28
2018-06-23T07:46:16.533Z,16.32
2018-06-23T07:47:16.514Z,16.36
2018-06-23T07:48:16.496Z,16.32
2018-06-23T07:49:16.478Z,16.39
2018-06-23T07:50:16.461Z,16.51
2018-06-23T07:51:16.449Z,16.51
2018-06-23T07:52:16.427Z,16.54
2018-06-23T07:53:16.412Z,16.51
2018-06-23T07:54:16.397Z,16.47
2018-06-23T07:55:16.376Z,16.41
2018-06-23T07:56:16.448Z,16.37
2018-06-23T07:57:16.343Z,16.44
2018-06-23T07:58:16.324Z,16.47
2018-06-23T07:59:16.313Z,16.39
2018-06-23T08:00:16.291Z,16.49
2018-06-23T08:01:16.274Z,16.47
2018-06-23T08:02:16.257Z,16.54
2018-06-23T08:03:16.242Z,16.50
2018-06-23T08:04:16.226Z,16.51
2018-06-23T08:05:16.208Z,16.58
2018-06-23T08:06:16.191Z,16.64
2018-06-23T08:07:16.175Z,16.68
2018-06-23T08:08:16.159Z,16.51
2018-06-23T08:09:16.146Z,16.54
2018-06-23T08:10:16.121Z,16.55
2018-06-23T08:11:16.107Z,16.54
2018-06-23T08:12:16.091Z,16.51
2018-06-23T08:13:16.074Z,16.57
2018-06-23T08:14:16.066Z,16.59
2018-06-23T08:15:16.040Z,16.62
2018-06-23T08:16:16.022Z,16.69
2018-06-23T08:17:16.005Z,16.77
2018-06-23T08:18:16.007Z,16.74
2018-06-23T08:19:15.970Z,16.87
2018-06-23T08:20:15.956Z,16.80
2018-06-23T08:21:15.953Z,16.87
2018-06-23T08:22:15.923Z,16.89
2018-06-23T08:23:15.904Z,16.99
2018-06-23T08:24:15.888Z,17.04
2018-06-23T08:25:15.873Z,17.07
2018-06-23T08:26:15.884Z,17.12
2018-06-23T08:27:15.838Z,17.05
2018-06-23T08:28:15.820Z,17.09
2018-06-23T08:29:15.801Z,17.09
2018-06-23T08:30:15.789Z,17.12
2018-06-23T08:31:15.769Z,17.10
2018-06-23T08:32:15.753Z,17.12
2018-06-23T08:33:15.739Z,17.13
2018-06-23T08:34:15.723Z,17.16
2018-06-23T08:35:15.706Z,17.12
2018-06-23T08:36:15.689Z,17.19
2018-06-23T08:37:15.670Z,17.28
2018-06-23T08:38:15.657Z,17.20
2018-06-23T08:39:15.641Z,17.20
2018-06-23T08:40:15.619Z,17.19
2018-06-23T08:41:15.604Z,17.17
2018-06-23T08:42:15.588Z,17.27
2018-06-23T08:43:15.572Z,17.19
2018-06-23T08:44:15.554Z,17.17
2018-06-23T08:45:15.534Z,17.17
2018-06-23T08:46:15.520Z,17.22
2018-06-23T08:47:15.504Z,17.24
2018-06-23T08:48:15.491Z,17.17
2018-06-23T08:49:15.536Z,17.22
2018-06-23T08:50:15.455Z,17.16
2018-06-23T08:51:15.445Z,17.22
2018-06-23T08:52:15.422Z,17.22
2018-06-23T08:53:15.404Z,17.20
2018-06-23T08:54:15.386Z,17.31
2018-06-23T08:55:15.413Z,17.19
2018-06-23T08:56:15.358Z,17.22
2018-06-23T08:57:15.344Z,17.12
2018-06-23T08:58:15.327Z,17.13
2018-06-23T08:59:15.304Z,17.07
2018-06-23T09:00:15.295Z,17.02
2018-06-23T09:01:15.273Z,16.89
2018-06-23T09:02:15.278Z,16.89
2018-06-23T09:03:15.237Z,16.94
2018-06-23T09:04:15.228Z,16.84
2018-06-23T09:05:15.266Z,16.87
2018-06-23T09:06:15.188Z,16.86
2018-06-23T09:07:15.172Z,16.94
2018-06-23T09:08:15.197Z,16.84
2018-06-23T09:09:15.140Z,16.91
2018-06-23T09:10:15.164Z,17.05
2018-06-23T09:11:15.178Z,17.22
2018-06-23T09:12:15.123Z,17.20
2018-06-23T09:13:15.080Z,17.20
2018-06-23T09:14:15.055Z,17.30
2018-06-23T09:15:15.040Z,17.34
2018-06-23T09:16:15.025Z,17.38
2018-06-23T09:17:15.007Z,17.32
2018-06-23T09:18:14.998Z,17.23
2018-06-23T09:19:14.974Z,17.20
2018-06-23T09:20:14.956Z,17.32
2018-06-23T09:21:14.941Z,17.46
2018-06-23T09:22:14.938Z,17.54
2018-06-23T09:23:14.955Z,17.47
2018-06-23T09:24:14.890Z,17.53
2018-06-23T09:25:14.892Z,17.60
2018-06-23T09:26:14.891Z,17.49
2018-06-23T09:27:14.847Z,17.47
2018-06-23T09:28:14.839Z,17.50
2018-06-23T09:29:14.814Z,17.50
2018-06-23T09:30:14.793Z,17.63
2018-06-23T09:31:14.776Z,17.56
2018-06-23T09:32:14.758Z,17.57
2018-06-23T09:33:14.743Z,17.53
2018-06-23T09:34:14.724Z,17.59
2018-06-23T09:35:14.709Z,17.54
2018-06-23T09:36:14.695Z,17.59
2018-06-23T09:37:14.680Z,17.49
2018-06-23T09:38:14.660Z,17.53
2018-06-23T09:39:14.647Z,17.54
2018-06-23T09:40:14.636Z,17.69
2018-06-23T09:41:14.612Z,17.69
2018-06-23T09:42:14.593Z,17.76
2018-06-23T09:43:14.578Z,17.80
2018-06-23T09:44:14.571Z,17.87
2018-06-23T09:45:14.546Z,17.90
2018-06-23T09:46:14.618Z,17.88
2018-06-23T09:47:14.514Z,17.91
2018-06-23T09:48:14.513Z,17.95
2018-06-23T09:49:14.485Z,17.87
2018-06-23T09:50:14.466Z,17.87
2018-06-23T09:51:14.450Z,17.95
2018-06-23T09:52:14.434Z,17.88
2018-06-23T09:53:14.418Z,17.93
2018-06-23T09:54:14.400Z,18.03
2018-06-23T09:55:14.383Z,17.98
2018-06-23T09:56:14.385Z,18.00
2018-06-23T09:57:14.352Z,18.03
2018-06-23T09:58:14.337Z,17.98
2018-06-23T09:59:14.320Z,18.03
2018-06-23T10:00:14.303Z,18.05
2018-06-23T10:01:14.288Z,17.91
2018-06-23T10:02:14.275Z,17.95
2018-06-23T10:03:14.303Z,17.88
2018-06-23T10:04:14.241Z,17.88
2018-06-23T10:05:14.222Z,17.90
2018-06-23T10:06:14.210Z,17.88
2018-06-23T10:07:14.226Z,17.94
2018-06-23T10:08:14.179Z,17.93
2018-06-23T10:09:14.160Z,18.00
2018-06-23T10:10:14.150Z,18.08
2018-06-23T10:11:14.130Z,18.13
2018-06-23T10:12:14.118Z,18.08
2018-06-23T10:13:14.093Z,18.15
2018-06-23T10:14:14.079Z,18.11
2018-06-23T10:15:14.083Z,18.06
2018-06-23T10:16:14.062Z,18.11
2018-06-23T10:17:14.045Z,18.12
2018-06-23T10:18:14.017Z,18.12
2018-06-23T10:19:14.043Z,18.26
2018-06-23T10:20:13.994Z,18.18
2018-06-23T10:21:13.969Z,18.30
2018-06-23T10:22:13.949Z,18.23
2018-06-23T10:23:13.933Z,18.34
2018-06-23T10:24:13.918Z,18.42
2018-06-23T10:25:13.905Z,18.36
2018-06-23T10:26:13.890Z,18.41
2018-06-23T10:27:13.878Z,18.46
2018-06-23T10:28:13.855Z,18.45
2018-06-23T10:29:13.839Z,18.43
2018-06-23T10:30:13.829Z,18.33
2018-06-23T10:31:13.804Z,18.42
2018-06-23T10:32:13.789Z,18.37
2018-06-23T10:33:13.774Z,18.45
2018-06-23T10:34:13.761Z,18.33
2018-06-23T10:35:13.743Z,18.43
2018-06-23T10:36:13.732Z,18.51
2018-06-23T10:37:13.715Z,18.74
2018-06-23T10:38:13.732Z,18.73
2018-06-23T10:39:13.685Z,18.78
2018-06-23T10:40:13.662Z,18.73
2018-06-23T10:41:13.653Z,18.66
2018-06-23T10:42:13.634Z,18.73
2018-06-23T10:43:13.628Z,18.79
2018-06-23T10:44:13.604Z,18.78
2018-06-23T10:45:13.583Z,18.78
2018-06-23T10:46:13.573Z,18.91
2018-06-23T10:47:13.553Z,18.86
2018-06-23T10:48:13.535Z,18.89
2018-06-23T10:49:13.527Z,18.94
2018-06-23T10:50:13.555Z,18.94
2018-06-23T10:51:13.505Z,18.94
2018-06-23T10:52:13.482Z,19.05
2018-06-23T10:53:13.460Z,19.05
2018-06-23T10:54:13.501Z,19.11
2018-06-23T10:55:13.474Z,19.22
2018-06-23T10:56:13.413Z,19.56
2018-06-23T10:57:13.400Z,19.63
2018-06-23T10:58:13.386Z,19.55
2018-06-23T10:59:13.367Z,19.53
2018-06-23T11:00:13.359Z,19.45
2018-06-23T11:01:13.336Z,19.24
2018-06-23T11:02:13.333Z,19.26
2018-06-23T11:03:13.303Z,19.23
2018-06-23T11:04:13.291Z,19.11
2018-06-23T11:05:13.272Z,19.01
2018-06-23T11:06:13.257Z,18.98
2018-06-23T11:07:13.244Z,19.00
2018-06-23T11:08:13.231Z,19.22
2018-06-23T11:09:13.227Z,19.39
2018-06-23T11:10:13.219Z,19.38
2018-06-23T11:11:13.186Z,19.85
2018-06-23T11:12:13.163Z,19.81
2018-06-23T11:13:13.146Z,20.29
2018-06-23T11:14:13.132Z,20.52
2018-06-23T11:15:13.118Z,21.05
2018-06-23T11:16:13.101Z,21.30
2018-06-23T11:17:13.123Z,21.33
2018-06-23T11:18:13.097Z,21.29
2018-06-23T11:19:13.057Z,21.28
2018-06-23T11:20:13.047Z,21.10
2018-06-23T11:21:13.027Z,21.00
2018-06-23T11:22:13.018Z,20.66
2018-06-23T11:23:12.999Z,20.42
2018-06-23T11:24:13.045Z,20.11
2018-06-23T11:25:12.971Z,19.93
2018-06-23T11:26:12.980Z,19.79
2018-06-23T11:27:12.943Z,19.77
2018-06-23T11:28:12.955Z,19.71
2018-06-23T11:29:12.917Z,19.74
2018-06-23T11:30:12.902Z,19.84
2018-06-23T11:31:12.887Z,20.11
2018-06-23T11:32:12.931Z,20.37
2018-06-23T11:33:12.862Z,20.60
2018-06-23T11:34:12.858Z,20.68
2018-06-23T11:35:12.840Z,20.64
2018-06-23T11:36:12.818Z,20.67
2018-06-23T11:37:12.798Z,20.56
2018-06-23T11:38:12.787Z,20.64
2018-06-23T11:39:12.775Z,20.22
2018-06-23T11:40:12.762Z,20.02
2018-06-23T11:41:12.792Z,19.89
2018-06-23T11:42:12.743Z,19.79
2018-06-23T11:43:12.712Z,19.75
2018-06-23T11:44:12.709Z,19.67
2018-06-23T11:45:12.683Z,19.53
2018-06-23T11:46:12.678Z,19.52
2018-06-23T11:47:12.661Z,19.45
2018-06-23T11:48:12.647Z,19.34
2018-06-23T11:49:12.642Z,19.26
2018-06-23T11:50:12.616Z,19.30
2018-06-23T11:51:12.596Z,19.17
2018-06-23T11:52:12.689Z,19.17
2018-06-23T11:53:12.607Z,19.30
2018-06-23T11:54:12.556Z,19.30
2018-06-23T11:55:12.540Z,19.34
2018-06-23T11:56:12.535Z,19.49
2018-06-23T11:57:12.506Z,19.56
2018-06-23T11:58:12.490Z,19.55
2018-06-23T11:59:12.476Z,19.71
2018-06-23T12:00:12.465Z,19.74
2018-06-23T12:01:12.485Z,20.15
2018-06-23T12:02:12.431Z,20.12
2018-06-23T12:03:12.475Z,20.60
2018-06-23T12:04:12.448Z,20.56
2018-06-23T12:05:12.388Z,20.96
2018-06-23T12:06:12.372Z,21.38
2018-06-23T12:07:12.367Z,21.59
2018-06-23T12:08:12.366Z,21.88
2018-06-23T12:09:12.405Z,22.14
2018-06-23T12:10:12.314Z,21.99
2018-06-23T12:11:12.303Z,21.83
2018-06-23T12:12:12.291Z,21.59
2018-06-23T12:13:12.281Z,21.56
2018-06-23T12:14:12.278Z,21.56
2018-06-23T12:15:12.253Z,21.44
2018-06-23T12:16:12.239Z,21.26
2018-06-23T12:17:12.233Z,21.15
2018-06-23T12:18:12.218Z,20.96
2018-06-23T12:19:12.201Z,21.04
2018-06-23T12:20:12.225Z,21.40
2018-06-23T12:21:12.172Z,21.50
2018-06-23T12:22:12.182Z,21.65
2018-06-23T12:23:12.148Z,21.70
2018-06-23T12:24:12.146Z,21.78
2018-06-23T12:25:12.126Z,21.99
2018-06-23T12:26:12.120Z,22.33
2018-06-23T12:27:12.100Z,22.38
2018-06-23T12:28:12.087Z,22.61
2018-06-23T12:29:12.076Z,22.83
2018-06-23T12:30:12.066Z,22.81
2018-06-23T12:31:12.061Z,22.61
2018-06-23T12:32:12.042Z,22.62
2018-06-23T12:33:12.031Z,22.51
2018-06-23T12:34:12.043Z,22.78
2018-06-23T12:35:12.017Z,23.02
2018-06-23T12:36:12.006Z,22.96
2018-06-23T12:37:11.991Z,22.95
2018-06-23T12:38:11.986Z,22.99
2018-06-23T12:39:11.972Z,22.92
2018-06-23T12:40:11.960Z,22.99
2018-06-23T12:41:12.002Z,22.89
2018-06-23T12:42:11.946Z,22.92
2018-06-23T12:43:11.938Z,23.11
2018-06-23T12:44:11.923Z,23.17
2018-06-23T12:45:11.912Z,23.33
2018-06-23T12:46:11.909Z,23.23
2018-06-23T12:47:11.900Z,23.23
2018-06-23T12:48:11.892Z,23.33
2018-06-23T12:49:11.879Z,23.36
2018-06-23T12:50:11.869Z,23.21
2018-06-23T12:51:11.861Z,22.91
2018-06-23T12:52:11.853Z,22.63
2018-06-23T12:53:11.843Z,22.28